AQQ10 IFIS: Internet Flight Information System
logo dgac
Miércoles 26 de Enero del 2022

Metar

Buscar por aerodromo o helipuerto
Ingrese nombre de aeródromo, localidad o designador OACI:


METAR del 26-01-2022 a las 17:00 UTC
Para mayor información visite www.meteochile.cl
METAR SCMK 261700Z 19013KT CAVOK 21/11 Q1018
Viento: dirección 190 grados, velocidad 13 nudos
Visibilidad: 10 km o más,
    sin nubes bajo los 5.000 pies o bajo del MSA (Mínimo de Seguridad del Aeródromo),
    sin cumulonimbus, y sin fenómenos de tiempo significativo en el aeródromo o alrededores
Temperatura: 21 °C
Rocío: 11 °C
Humedad_relativa: 53%
Presión: 1018 hPa
METAR del 26-01-2022 a las 17:00 UTC
Para mayor información visite www.meteochile.cl
METAR SCRM 261700Z 28014KT 9999 OVC020 02/// Q0993 NOSIG
Viento: dirección 280 grados, velocidad 14 nudos
Visibilidad: 10 km o más
Nubes: Cubierto a 2000 pies sobre el nivel del aeródromo
Presión: 993 hPa
No se esperan cambios significativos en las próximas 2 horas
METAR del 26-01-2022 a las 17:00 UTC
Para mayor información visite www.meteochile.cl
METAR SCQP 261700Z 17006KT 110V230 CAVOK 27/14 Q1014
Viento: dirección 170 grados, velocidad 6 nudos
Viento con dirección variable entre 110 y 230 grados
Visibilidad: 10 km o más,
    sin nubes bajo los 5.000 pies o bajo del MSA (Mínimo de Seguridad del Aeródromo),
    sin cumulonimbus, y sin fenómenos de tiempo significativo en el aeródromo o alrededores
Temperatura: 27 °C
Rocío: 14 °C
Humedad_relativa: 45%
Presión: 1014 hPa
METAR del 26-01-2022 a las 17:00 UTC
Para mayor información visite www.meteochile.cl
METAR SCTB 261700Z VRB07KT 8000 NSC 27/11 Q1015
Viento: dirección variable, velocidad 7 nudos
Visibilidad: 8000 metros
Sin nubes bajo los 5000 pies o bajo del MSA (Mínimo de Seguridad del Aeródromo)
Temperatura: 27 °C
Rocío: 11 °C
Humedad_relativa: 37%
Presión: 1015 hPa
METAR del 26-01-2022 a las 17:00 UTC
Para mayor información visite www.meteochile.cl
METAR SCTE 261700Z 16008KT 130V210 CAVOK 21/14 Q1016 NOSIG
Viento: dirección 160 grados, velocidad 8 nudos
Viento con dirección variable entre 130 y 210 grados
Visibilidad: 10 km o más,
    sin nubes bajo los 5.000 pies o bajo del MSA (Mínimo de Seguridad del Aeródromo),
    sin cumulonimbus, y sin fenómenos de tiempo significativo en el aeródromo o alrededores
Temperatura: 21 °C
Rocío: 14 °C
Humedad_relativa: 64%
Presión: 1016 hPa
No se esperan cambios significativos en las próximas 2 horas
METAR del 26-01-2022 a las 17:00 UTC
Para mayor información visite www.meteochile.cl
METAR SCFA 261700Z 20014KT 9999 FEW023 20/14 Q1015 NOSIG
Viento: dirección 200 grados, velocidad 14 nudos
Visibilidad: 10 km o más
Nubes: Escasa nubosidad a 2300 pies sobre el nivel del aeródromo
Temperatura: 20 °C
Rocío: 14 °C
Humedad_relativa: 68%
Presión: 1015 hPa
No se esperan cambios significativos en las próximas 2 horas
METAR del 26-01-2022 a las 17:00 UTC
Para mayor información visite www.meteochile.cl
METAR SCPD 261700Z 15008KT 110V200 CAVOK 29/11 Q1014
Viento: dirección 150 grados, velocidad 8 nudos
Viento con dirección variable entre 110 y 200 grados
Visibilidad: 10 km o más,
    sin nubes bajo los 5.000 pies o bajo del MSA (Mínimo de Seguridad del Aeródromo),
    sin cumulonimbus, y sin fenómenos de tiempo significativo en el aeródromo o alrededores
Temperatura: 29 °C
Rocío: 11 °C
Humedad_relativa: 33%
Presión: 1014 hPa
METAR del 26-01-2022 a las 17:00 UTC
Para mayor información visite www.meteochile.cl
METAR SCNT 261700Z 22018KT CAVOK 15/02 Q1021
Viento: dirección 220 grados, velocidad 18 nudos
Visibilidad: 10 km o más,
    sin nubes bajo los 5.000 pies o bajo del MSA (Mínimo de Seguridad del Aeródromo),
    sin cumulonimbus, y sin fenómenos de tiempo significativo en el aeródromo o alrededores
Temperatura: 15 °C
Rocío: 2 °C
Humedad_relativa: 41%
Presión: 1021 hPa
METAR del 26-01-2022 a las 17:00 UTC
Para mayor información visite www.meteochile.cl
METAR SCCC 261700Z 01007KT CAVOK 21/M05 Q1023
Viento: dirección 010 grados, velocidad 7 nudos
Visibilidad: 10 km o más,
    sin nubes bajo los 5.000 pies o bajo del MSA (Mínimo de Seguridad del Aeródromo),
    sin cumulonimbus, y sin fenómenos de tiempo significativo en el aeródromo o alrededores
Temperatura: 21 °C
Rocío: -5 °C
Humedad_relativa: 17%
Presión: 1023 hPa
METAR del 26-01-2022 a las 17:00 UTC
Para mayor información visite www.meteochile.cl
METAR SCCY 261700Z 20008KT 140V220 CAVOK 23/05 Q1021
Viento: dirección 200 grados, velocidad 8 nudos
Viento con dirección variable entre 140 y 220 grados
Visibilidad: 10 km o más,
    sin nubes bajo los 5.000 pies o bajo del MSA (Mínimo de Seguridad del Aeródromo),
    sin cumulonimbus, y sin fenómenos de tiempo significativo en el aeródromo o alrededores
Temperatura: 23 °C
Rocío: 5 °C
Humedad_relativa: 31%
Presión: 1021 hPa